Time;durP1;ratioP1;P1;durP2;ratioP2;P2;SDS_P1;SDS_P2;PMS_P1;PMS_P2;Temp;Humidity;BMP_temperature;BMP_pressure;BME280_temperature;BME280_humidity;BME280_pressure;Samples;Min_cycle;Max_cycle;Signal;HPM_P1;HPM_P2
2021/12/27 00:00:10;;;;;;;10.77;8.90;;;;;;;4.88;100.00;94395.13;6094003;23;20231;-83
2021/12/27 00:02:35;;;;;;;11.70;8.77;;;;;;;4.84;100.00;94399.75;6095244;23;20619;-83
2021/12/27 00:05:00;;;;;;;11.37;8.73;;;;;;;4.84;100.00;94392.03;6120710;23;20167;-83
2021/12/27 00:07:26;;;;;;;13.00;9.33;;;;;;;4.80;100.00;94382.16;6120066;23;20236;-83
2021/12/27 00:09:51;;;;;;;12.73;9.80;;;;;;;4.92;100.00;94382.78;6118808;23;20160;-83
2021/12/27 00:12:17;;;;;;;9.40;8.17;;;;;;;4.89;100.00;94381.31;6119165;23;20558;-83
2021/12/27 00:14:42;;;;;;;11.20;8.43;;;;;;;4.91;100.00;94376.03;6119504;23;20218;-83
2021/12/27 00:17:07;;;;;;;11.77;9.30;;;;;;;4.86;100.00;94381.63;6119579;23;20684;-84
2021/12/27 00:19:33;;;;;;;11.03;8.63;;;;;;;4.93;100.00;94374.13;6120087;23;20626;-83
2021/12/27 00:21:58;;;;;;;9.50;8.23;;;;;;;4.90;100.00;94364.94;6094126;23;20175;-83
2021/12/27 00:24:23;;;;;;;12.07;8.90;;;;;;;4.80;100.00;94367.53;6119162;23;20261;-83
2021/12/27 00:26:49;;;;;;;10.83;8.67;;;;;;;4.72;100.00;94364.88;6119002;23;20184;-83
2021/12/27 00:29:15;;;;;;;9.27;8.23;;;;;;;4.65;100.00;94368.13;6118845;23;20590;-83
2021/12/27 00:31:41;;;;;;;12.90;9.30;;;;;;;4.61;100.00;94372.75;6118699;23;20153;-83
2021/12/27 00:34:06;;;;;;;15.13;9.33;;;;;;;4.54;100.00;94369.94;6119043;23;20195;-84
2021/12/27 00:36:32;;;;;;;9.83;7.73;;;;;;;4.49;100.00;94374.66;6118823;23;20234;-83
2021/12/27 00:38:57;;;;;;;10.37;8.27;;;;;;;4.52;100.00;94371.84;6119415;23;20175;-84
2021/12/27 00:41:22;;;;;;;11.63;8.70;;;;;;;4.47;100.00;94375.75;6118644;23;20176;-83
2021/12/27 00:43:48;;;;;;;11.13;7.80;;;;;;;4.45;100.00;94377.66;6094503;23;20180;-83
2021/12/27 00:46:13;;;;;;;10.60;8.20;;;;;;;4.49;100.00;94377.25;6119194;23;20274;-83
2021/12/27 00:48:38;;;;;;;12.47;9.37;;;;;;;4.50;100.00;94368.56;6119257;23;20280;-83
2021/12/27 00:51:04;;;;;;;11.77;8.77;;;;;;;4.52;100.00;94365.88;6118694;23;20164;-83
2021/12/27 00:53:30;;;;;;;11.87;9.03;;;;;;;4.51;100.00;94361.69;6118614;23;20529;-83
2021/12/27 00:55:55;;;;;;;12.63;9.70;;;;;;;4.48;100.00;94359.38;6118602;23;20646;-83
2021/12/27 00:58:20;;;;;;;11.77;8.80;;;;;;;4.38;100.00;94364.56;6119141;23;20627;-84
2021/12/27 01:00:46;;;;;;;14.33;10.77;;;;;;;4.29;100.00;94359.44;6119003;23;20168;-83
2021/12/27 01:03:11;;;;;;;12.33;9.57;;;;;;;4.23;100.00;94364.16;6118157;23;20180;-83
2021/12/27 01:05:36;;;;;;;14.83;10.47;;;;;;;4.21;100.00;94370.41;6119121;23;20185;-83
2021/12/27 01:08:02;;;;;;;14.77;10.13;;;;;;;4.14;100.00;94370.13;6119325;23;20215;-83
2021/12/27 01:13:37;;;;;;;11.80;9.17;;;;;;;4.11;100.00;94370.41;6116782;23;20198;-83
2021/12/27 01:16:11;;;;;;;12.30;9.00;;;;;;;4.15;100.00;94374.34;6120550;23;20582;-83
2021/12/27 01:18:44;;;;;;;12.43;9.37;;;;;;;4.03;100.00;94375.44;6120593;23;20179;-82
2021/12/27 01:21:14;;;;;;;13.37;9.90;;;;;;;4.08;100.00;94375.03;6097645;23;20161;-83
2021/12/27 01:23:39;;;;;;;12.60;9.77;;;;;;;4.07;100.00;94370.84;6120782;23;20248;-83
2021/12/27 01:26:05;;;;;;;13.67;9.17;;;;;;;4.07;100.00;94374.22;6120104;23;20665;-82
2021/12/27 01:28:30;;;;;;;11.53;8.37;;;;;;;4.08;100.00;94370.69;6120210;23;20231;-83
2021/12/27 01:30:56;;;;;;;12.00;9.17;;;;;;;4.09;100.00;94374.88;6120685;23;20185;-83
2021/12/27 01:33:23;;;;;;;11.40;9.17;;;;;;;4.17;100.00;94377.59;6119500;23;20167;-83
2021/12/27 01:35:49;;;;;;;13.07;10.23;;;;;;;4.14;100.00;94375.28;6096097;23;20188;-82
2021/12/27 01:38:15;;;;;;;12.40;9.17;;;;;;;4.16;100.00;94372.59;6120205;23;20923;-83
2021/12/27 01:40:42;;;;;;;14.17;10.07;;;;;;;4.27;100.00;94375.00;6096377;23;20212;-83
2021/12/27 01:43:24;;;;;;;13.20;10.47;;;;;;;4.22;100.00;94372.81;6071310;23;20255;-83
2021/12/27 01:46:02;;;;;;;12.13;9.17;;;;;;;4.24;100.00;94373.53;6095807;23;20559;-83
2021/12/27 01:48:32;;;;;;;12.33;9.03;;;;;;;4.23;100.00;94365.94;6097394;23;20146;-83
2021/12/27 01:50:59;;;;;;;11.80;8.80;;;;;;;4.30;100.00;94368.75;6095949;23;20181;-82
2021/12/27 01:53:27;;;;;;;11.53;8.47;;;;;;;4.19;100.00;94372.31;6147209;23;20143;-83
2021/12/27 01:55:54;;;;;;;13.60;9.33;;;;;;;4.33;100.00;94371.03;6148212;23;20231;-83
2021/12/27 01:58:20;;;;;;;12.13;8.90;;;;;;;4.28;100.00;94368.91;6106055;23;20223;-84
2021/12/27 02:00:48;;;;;;;11.30;9.00;;;;;;;4.26;100.00;94373.38;6100249;23;20157;-84
2021/12/27 02:03:16;;;;;;;11.30;8.60;;;;;;;4.27;100.00;94369.88;6099847;23;20224;-82
2021/12/27 02:05:41;;;;;;;11.17;8.40;;;;;;;4.33;100.00;94369.31;6075743;23;20460;-84
2021/12/27 02:08:07;;;;;;;11.93;8.80;;;;;;;4.27;100.00;94359.59;6123490;23;20184;-84
2021/12/27 02:10:32;;;;;;;11.57;9.53;;;;;;;4.26;100.00;94357.97;6122644;23;20188;-83
2021/12/27 02:12:58;;;;;;;12.53;9.70;;;;;;;4.34;100.00;94349.56;6122931;23;20231;-83
2021/12/27 02:15:24;;;;;;;12.03;9.13;;;;;;;4.28;100.00;94348.34;6123542;23;20652;-83
2021/12/27 02:17:49;;;;;;;12.43;9.30;;;;;;;4.27;100.00;94351.88;6123225;23;20180;-84
2021/12/27 02:20:17;;;;;;;11.53;8.67;;;;;;;4.24;100.00;94358.09;6122370;23;20153;-84
2021/12/27 02:22:44;;;;;;;10.87;7.80;;;;;;;4.19;100.00;94350.00;6121630;23;20184;-83
2021/12/27 02:25:10;;;;;;;10.70;7.97;;;;;;;4.15;100.00;94346.09;6121856;23;20418;-84
2021/12/27 02:27:38;;;;;;;10.43;7.50;;;;;;;4.13;100.00;94347.16;6097914;23;20489;-83
2021/12/27 02:30:08;;;;;;;9.23;6.77;;;;;;;4.09;100.00;94350.97;6097554;23;20156;-83
2021/12/27 02:32:33;;;;;;;7.73;5.93;;;;;;;4.12;100.00;94342.97;6121628;23;20615;-83
2021/12/27 02:34:58;;;;;;;9.03;6.33;;;;;;;4.13;100.00;94344.59;6121317;23;20303;-84
2021/12/27 02:37:24;;;;;;;6.20;5.60;;;;;;;4.11;100.00;94339.59;6121377;23;20192;-84
2021/12/27 02:39:49;;;;;;;6.23;5.23;;;;;;;4.09;100.00;94336.34;6121765;23;20498;-84
2021/12/27 02:42:18;;;;;;;8.37;5.63;;;;;;;4.09;100.00;94341.50;6121060;23;20472;-84
2021/12/27 02:44:44;;;;;;;8.17;5.90;;;;;;;4.05;100.00;94339.31;6121056;23;20239;-83
2021/12/27 02:47:09;;;;;;;7.23;5.70;;;;;;;4.09;100.00;94343.25;6121003;23;20556;-83
2021/12/27 02:49:35;;;;;;;7.50;6.30;;;;;;;4.07;100.00;94345.16;6121244;23;20220;-83
2021/12/27 02:52:00;;;;;;;7.53;5.97;;;;;;;4.07;100.00;94343.41;6120109;23;20266;-82
2021/12/27 02:54:27;;;;;;;7.80;5.73;;;;;;;4.12;100.00;94348.91;6120963;23;20555;-83
2021/12/27 02:56:52;;;;;;;8.97;6.50;;;;;;;4.12;100.00;94353.25;6096513;23;20215;-83
2021/12/27 02:59:17;;;;;;;9.20;7.27;;;;;;;4.20;100.00;94350.78;6120691;23;20511;-83
2021/12/27 03:01:42;;;;;;;7.73;6.37;;;;;;;4.17;100.00;94344.19;6097011;23;20184;-84
2021/12/27 03:04:08;;;;;;;10.20;7.27;;;;;;;4.14;100.00;94344.44;6120305;23;20163;-83
2021/12/27 03:06:33;;;;;;;8.97;7.70;;;;;;;4.23;100.00;94335.91;6121054;23;20239;-83
2021/12/27 03:08:58;;;;;;;11.73;7.77;;;;;;;4.19;100.00;94332.00;6119150;23;20505;-83
2021/12/27 03:11:24;;;;;;;11.50;7.90;;;;;;;4.15;100.00;94330.66;6120013;23;20177;-83
2021/12/27 03:13:53;;;;;;;10.00;8.07;;;;;;;4.14;100.00;94323.88;6120203;23;20198;-83
2021/12/27 03:16:21;;;;;;;9.97;8.33;;;;;;;4.17;100.00;94330.53;6119939;23;20186;-83
2021/12/27 03:18:49;;;;;;;9.20;7.73;;;;;;;4.20;100.00;94333.63;6119321;23;20190;-83
2021/12/27 03:21:15;;;;;;;11.13;8.50;;;;;;;4.12;100.00;94328.34;6118925;23;20164;-83
2021/12/27 03:23:42;;;;;;;11.67;8.27;;;;;;;4.12;100.00;94328.34;6119927;23;20197;-83
2021/12/27 03:26:08;;;;;;;11.47;8.07;;;;;;;4.13;100.00;94326.59;6095263;23;20235;-83
2021/12/27 03:28:34;;;;;;;9.77;8.20;;;;;;;4.20;100.00;94328.47;6095312;23;20642;-83
2021/12/27 03:30:59;;;;;;;11.63;8.73;;;;;;;4.21;100.00;94322.38;6119776;23;20171;-84
2021/12/27 03:33:25;;;;;;;10.87;8.73;;;;;;;4.17;100.00;94322.81;6118735;23;20155;-83
2021/12/27 03:36:00;;;;;;;11.77;9.13;;;;;;;4.16;100.00;94321.19;6118518;23;20337;-83
2021/12/27 03:38:27;;;;;;;10.07;8.73;;;;;;;4.16;100.00;94321.19;6096280;23;20183;-83
2021/12/27 03:40:53;;;;;;;10.33;8.27;;;;;;;4.17;100.00;94312.53;6119049;23;20161;-83
2021/12/27 03:43:18;;;;;;;10.50;8.23;;;;;;;4.10;100.00;94306.34;6118571;23;20174;-83
2021/12/27 03:45:43;;;;;;;11.10;8.70;;;;;;;4.13;100.00;94313.75;6119098;23;20180;-83
2021/12/27 03:48:09;;;;;;;9.07;7.77;;;;;;;4.05;100.00;94309.31;6119339;23;20152;-83
2021/12/27 03:50:35;;;;;;;8.63;7.33;;;;;;;4.08;100.00;94303.09;6094720;23;20628;-83
2021/12/27 03:53:01;;;;;;;8.73;7.43;;;;;;;4.00;100.00;94308.13;6118479;23;20165;-83
2021/12/27 03:55:27;;;;;;;9.00;7.13;;;;;;;3.94;100.00;94306.91;6095101;23;20189;-83
2021/12/27 03:57:55;;;;;;;8.27;7.00;;;;;;;3.94;100.00;94306.91;6119356;23;20183;-83
2021/12/27 04:02:50;;;;;;;9.77;7.43;;;;;;;3.93;100.00;94305.28;6093798;23;20272;-83
2021/12/27 04:05:16;;;;;;;9.40;7.60;;;;;;;3.93;100.00;94300.94;6095094;23;20221;-83
2021/12/27 04:07:44;;;;;;;9.47;7.70;;;;;;;4.01;100.00;94302.84;6119685;23;20222;-82
2021/12/27 04:10:10;;;;;;;10.30;7.90;;;;;;;3.98;100.00;94301.34;6118151;23;20216;-83
2021/12/27 04:12:37;;;;;;;10.90;8.40;;;;;;;3.98;100.00;94313.41;6118928;23;20162;-84
2021/12/27 04:15:06;;;;;;;11.03;7.53;;;;;;;4.02;100.00;94308.78;6070555;23;20157;-84
2021/12/27 04:17:32;;;;;;;8.93;7.27;;;;;;;4.10;100.00;94311.47;6119267;23;20185;-84
2021/12/27 04:19:57;;;;;;;9.20;7.40;;;;;;;4.10;100.00;94314.03;6119041;23;20479;-83
2021/12/27 04:22:22;;;;;;;9.17;7.70;;;;;;;4.11;100.00;94313.91;6093751;23;20166;-83
2021/12/27 04:24:48;;;;;;;8.73;7.33;;;;;;;4.15;100.00;94304.13;6118960;23;20163;-83
2021/12/27 04:27:13;;;;;;;9.63;7.50;;;;;;;4.16;100.00;94318.63;6118957;23;20521;-83
2021/12/27 04:29:38;;;;;;;9.47;7.27;;;;;;;4.18;100.00;94314.97;6118621;23;20192;-83
2021/12/27 04:32:04;;;;;;;9.17;7.30;;;;;;;4.24;100.00;94305.88;6118093;23;20180;-83
2021/12/27 04:34:29;;;;;;;9.37;6.73;;;;;;;4.22;100.00;94308.59;6118853;23;20231;-83
2021/12/27 04:36:55;;;;;;;7.97;6.50;;;;;;;4.25;100.00;94304.94;6118960;23;20214;-83
2021/12/27 04:39:20;;;;;;;9.97;7.33;;;;;;;4.23;100.00;94299.13;6118740;23;20187;-83
2021/12/27 04:41:45;;;;;;;9.60;6.33;;;;;;;4.30;100.00;94296.81;6117939;23;20166;-83
2021/12/27 04:44:11;;;;;;;8.77;6.80;;;;;;;4.29;100.00;94300.34;6118621;23;20161;-83
2021/12/27 04:46:36;;;;;;;9.43;6.87;;;;;;;4.28;100.00;94306.41;6118720;23;20183;-82
2021/12/27 04:49:01;;;;;;;16.90;12.00;;;;;;;4.31;100.00;94298.44;6120593;23;20164;-83
2021/12/27 04:51:27;;;;;;;8.80;7.23;;;;;;;4.22;100.00;94290.59;6119838;23;20194;-83
2021/12/27 04:53:53;;;;;;;8.40;6.77;;;;;;;4.16;100.00;94295.50;6120256;23;20208;-83
2021/12/27 04:56:18;;;;;;;7.70;5.83;;;;;;;4.12;100.00;94294.97;6119994;23;20184;-82
2021/12/27 04:58:45;;;;;;;10.37;6.23;;;;;;;4.10;100.00;94294.28;6120128;23;20250;-83
2021/12/27 05:01:11;;;;;;;7.70;6.30;;;;;;;4.14;100.00;94295.63;6071788;23;20175;-83
2021/12/27 05:03:37;;;;;;;7.90;6.17;;;;;;;4.20;100.00;94292.50;6140898;23;20148;-83
2021/12/27 05:06:02;;;;;;;8.07;6.33;;;;;;;4.11;100.00;94287.41;6148857;23;20194;-83
2021/12/27 05:08:27;;;;;;;7.67;5.90;;;;;;;4.07;100.00;94292.00;6113372;23;20160;-83
2021/12/27 05:10:53;;;;;;;8.37;5.93;;;;;;;4.00;100.00;94293.50;6124430;23;20161;-84
2021/12/27 05:13:18;;;;;;;7.17;6.20;;;;;;;3.99;100.00;94291.91;6123702;23;20160;-84
2021/12/27 05:15:43;;;;;;;9.70;5.97;;;;;;;3.96;100.00;94280.13;6123983;23;20186;-83
2021/12/27 05:18:09;;;;;;;8.50;6.63;;;;;;;4.02;100.00;94281.31;6123347;23;20366;-84
2021/12/27 05:20:34;;;;;;;8.50;6.37;;;;;;;3.94;100.00;94281.22;6124512;23;20156;-84
2021/12/27 05:23:00;;;;;;;7.40;6.37;;;;;;;3.96;100.00;94285.25;6122418;23;20210;-83
2021/12/27 05:25:25;;;;;;;9.60;7.07;;;;;;;3.87;100.00;94280.94;6123167;23;20180;-84
2021/12/27 05:27:50;;;;;;;8.17;6.80;;;;;;;3.85;100.00;94280.28;6123093;23;20601;-83
2021/12/27 05:30:16;;;;;;;9.10;7.67;;;;;;;3.82;100.00;94280.56;6123193;23;20149;-83
2021/12/27 05:32:43;;;;;;;8.83;7.47;;;;;;;3.88;100.00;94276.63;6122387;23;20718;-83
2021/12/27 05:35:09;;;;;;;10.37;7.80;;;;;;;3.88;100.00;94266.34;6098546;23;20558;-83
2021/12/27 05:37:34;;;;;;;11.47;8.23;;;;;;;3.79;100.00;94274.88;6097481;23;20185;-83
2021/12/27 05:40:04;;;;;;;11.13;7.83;;;;;;;3.72;100.00;94266.94;6098275;23;20207;-83
2021/12/27 05:42:31;;;;;;;9.53;8.00;;;;;;;3.75;100.00;94266.66;6121512;23;20449;-83
2021/12/27 05:44:56;;;;;;;12.07;8.43;;;;;;;3.69;100.00;94265.44;6121638;23;20153;-83
2021/12/27 05:47:22;;;;;;;10.43;7.27;;;;;;;3.74;100.00;94259.91;6122217;23;20159;-84
2021/12/27 05:49:47;;;;;;;11.27;7.80;;;;;;;3.70;100.00;94267.03;6121373;23;20491;-83
2021/12/27 05:52:12;;;;;;;10.37;8.03;;;;;;;3.61;100.00;94265.28;6121193;23;20637;-84
2021/12/27 05:54:38;;;;;;;9.90;7.97;;;;;;;3.62;100.00;94258.41;6121263;23;20597;-83
2021/12/27 05:57:03;;;;;;;11.37;8.50;;;;;;;3.57;100.00;94263.97;6121062;23;20216;-83
2021/12/27 05:59:29;;;;;;;10.30;8.03;;;;;;;3.54;100.00;94261.69;6098532;23;20174;-83
2021/12/27 06:01:54;;;;;;;12.17;8.33;;;;;;;3.51;100.00;94256.81;6120143;23;20260;-84
2021/12/27 06:04:19;;;;;;;10.70;7.87;;;;;;;3.52;100.00;94250.72;6120900;23;20174;-84
2021/12/27 06:06:44;;;;;;;9.77;8.00;;;;;;;3.49;100.00;94256.13;6121042;23;20176;-83
2021/12/27 06:09:10;;;;;;;9.53;7.70;;;;;;;3.45;100.00;94236.84;6120404;23;20155;-83
2021/12/27 06:11:36;;;;;;;9.97;7.60;;;;;;;3.50;100.00;94244.09;6120317;23;20162;-83
2021/12/27 06:14:01;;;;;;;9.37;7.30;;;;;;;3.44;100.00;94242.06;6120472;23;20161;-83
2021/12/27 06:16:26;;;;;;;9.60;8.20;;;;;;;3.51;100.00;94238.84;6120356;23;20177;-83
2021/12/27 06:18:52;;;;;;;11.03;8.40;;;;;;;3.42;100.00;94232.75;6120592;23;20186;-83
2021/12/27 06:21:17;;;;;;;10.57;8.70;;;;;;;3.40;100.00;94231.28;6120213;23;20490;-83
2021/12/27 06:23:43;;;;;;;8.40;7.00;;;;;;;3.36;100.00;94235.88;6120483;23;20167;-83
2021/12/27 06:26:09;;;;;;;9.93;7.00;;;;;;;3.37;100.00;94239.25;6096084;23;20196;-83
2021/12/27 06:28:34;;;;;;;9.27;7.93;;;;;;;3.37;100.00;94244.41;6120182;23;20243;-83
2021/12/27 06:31:02;;;;;;;8.97;6.83;;;;;;;3.38;100.00;94240.88;6120098;23;20153;-84
2021/12/27 06:33:28;;;;;;;8.83;6.70;;;;;;;3.31;100.00;94242.38;6119455;23;20161;-83
2021/12/27 06:35:54;;;;;;;8.80;7.00;;;;;;;3.39;100.00;94245.06;6095311;23;20263;-83
2021/12/27 06:38:21;;;;;;;8.87;7.00;;;;;;;3.36;100.00;94247.91;6120468;23;20201;-82
2021/12/27 06:40:47;;;;;;;9.03;7.07;;;;;;;3.42;100.00;94249.91;6120007;23;20599;-83
2021/12/27 06:43:12;;;;;;;9.63;7.03;;;;;;;3.39;100.00;94245.06;6119376;23;20156;-83
2021/12/27 06:45:38;;;;;;;7.23;6.30;;;;;;;3.39;100.00;94245.88;6119586;23;20237;-83
2021/12/27 06:48:04;;;;;;;9.33;6.17;;;;;;;3.42;100.00;94239.66;6119797;23;20156;-83
2021/12/27 06:50:29;;;;;;;6.70;5.50;;;;;;;3.45;100.00;94236.84;6119279;23;20223;-82
2021/12/27 06:52:54;;;;;;;8.57;6.93;;;;;;;3.44;100.00;94236.94;6118560;23;20255;-83
2021/12/27 06:55:19;;;;;;;8.40;6.03;;;;;;;3.49;100.00;94237.34;6096438;23;20180;-83
2021/12/27 06:57:45;;;;;;;7.50;6.17;;;;;;;3.46;100.00;94229.94;6119459;23;20185;-82
2021/12/27 07:00:12;;;;;;;8.50;7.03;;;;;;;3.49;100.00;94230.47;6070988;23;20164;-83
2021/12/27 07:02:38;;;;;;;10.10;7.53;;;;;;;3.38;100.00;94234.00;6118709;23;20177;-83
2021/12/27 07:05:04;;;;;;;9.90;7.40;;;;;;;3.37;100.00;94237.50;6119238;23;20177;-83
2021/12/27 07:07:29;;;;;;;10.93;8.00;;;;;;;3.32;100.00;94249.13;6119873;23;20211;-83
2021/12/27 07:09:55;;;;;;;10.50;8.17;;;;;;;3.36;100.00;94238.47;6117259;23;20157;-82
2021/12/27 07:12:20;;;;;;;10.17;8.00;;;;;;;3.38;100.00;94230.63;6119175;23;20212;-83
2021/12/27 07:14:48;;;;;;;9.40;7.33;;;;;;;3.38;100.00;94240.88;6119161;23;20158;-83
2021/12/27 07:17:13;;;;;;;8.30;6.90;;;;;;;3.37;100.00;94234.13;6118982;23;20208;-83
2021/12/27 07:19:38;;;;;;;9.80;7.77;;;;;;;3.44;100.00;94237.75;6119402;23;20178;-83
2021/12/27 07:22:04;;;;;;;10.83;7.97;;;;;;;3.50;100.00;94234.66;6118709;23;20164;-83
2021/12/27 07:24:29;;;;;;;10.93;8.00;;;;;;;3.56;100.00;94230.72;6119096;23;20166;-84
2021/12/27 07:26:54;;;;;;;11.87;8.40;;;;;;;3.58;100.00;94226.28;6119273;23;20690;-83
2021/12/27 07:29:22;;;;;;;12.73;8.20;;;;;;;3.57;100.00;94225.47;6119575;23;20169;-84
2021/12/27 07:31:48;;;;;;;10.70;8.37;;;;;;;3.55;100.00;94229.94;6095662;23;20162;-83
2021/12/27 07:34:19;;;;;;;10.97;8.20;;;;;;;3.57;100.00;94224.66;6120065;23;20191;-84
2021/12/27 07:36:47;;;;;;;12.40;8.90;;;;;;;3.52;100.00;94219.09;6096934;23;20248;-83
2021/12/27 07:39:13;;;;;;;9.53;7.63;;;;;;;3.57;100.00;94224.66;6096363;23;20185;-83
2021/12/27 07:41:38;;;;;;;10.50;8.20;;;;;;;3.48;100.00;94210.88;6095393;23;20622;-83
2021/12/27 07:44:04;;;;;;;10.60;7.73;;;;;;;3.50;100.00;94224.38;6097164;23;20587;-83
2021/12/27 07:46:29;;;;;;;12.03;7.90;;;;;;;3.49;100.00;94221.97;6095256;23;20180;-83
2021/12/27 07:48:54;;;;;;;11.00;8.07;;;;;;;3.39;100.00;94224.53;6118745;23;20625;-83
2021/12/27 07:51:20;;;;;;;11.70;8.00;;;;;;;3.33;100.00;94223.31;6094090;23;20541;-82
2021/12/27 07:53:45;;;;;;;10.90;7.87;;;;;;;3.34;100.00;94216.41;6119541;23;20165;-83
2021/12/27 07:56:10;;;;;;;12.57;7.97;;;;;;;3.41;100.00;94218.31;6120194;23;20280;-83
2021/12/27 07:58:36;;;;;;;9.30;6.53;;;;;;;3.44;100.00;94231.81;6120059;23;20515;-82
2021/12/27 08:01:02;;;;;;;6.83;5.30;;;;;;;3.51;100.00;94233.69;6119478;23;20241;-84
2021/12/27 08:03:28;;;;;;;8.63;5.30;;;;;;;3.60;100.00;94227.75;6118514;23;20145;-83
2021/12/27 08:05:53;;;;;;;5.37;4.00;;;;;;;3.70;100.00;94230.28;6094759;23;20529;-83
2021/12/27 08:08:21;;;;;;;5.30;4.30;;;;;;;3.75;100.00;94229.88;6119172;23;20160;-83
2021/12/27 08:10:47;;;;;;;5.87;4.20;;;;;;;3.84;100.00;94229.88;6094328;23;20207;-83
2021/12/27 08:13:12;;;;;;;7.60;5.43;;;;;;;3.83;100.00;94232.56;6101912;23;20145;-83
2021/12/27 08:15:38;;;;;;;10.07;6.37;;;;;;;3.92;100.00;94234.31;6146890;23;20177;-83
2021/12/27 08:18:03;;;;;;;7.63;5.97;;;;;;;4.00;100.00;94238.75;6120833;23;20181;-84
2021/12/27 08:20:29;;;;;;;8.77;6.10;;;;;;;3.98;100.00;94233.75;6124459;23;20224;-84
2021/12/27 08:22:54;;;;;;;6.57;5.80;;;;;;;4.02;100.00;94232.53;6125612;23;20179;-84
2021/12/27 08:25:19;;;;;;;6.67;5.60;;;;;;;4.11;100.00;94226.53;6125751;23;20191;-84
2021/12/27 08:27:45;;;;;;;6.60;5.10;;;;;;;4.22;100.00;94222.97;6125965;23;20150;-84
2021/12/27 08:30:12;;;;;;;7.07;5.50;;;;;;;4.25;100.00;94210.69;6100265;23;20168;-84
2021/12/27 08:32:39;;;;;;;5.67;5.03;;;;;;;4.36;100.00;94214.00;6124382;23;20537;-83
2021/12/27 08:35:06;;;;;;;5.83;3.87;;;;;;;4.38;100.00;94215.47;6104021;23;20230;-83
2021/12/27 08:37:32;;;;;;;4.27;3.00;;;;;;;4.43;100.00;94210.72;6124534;23;20596;-84
2021/12/27 08:39:58;;;;;;;4.53;3.90;;;;;;;4.57;100.00;94209.44;6100919;23;20167;-83
2021/12/27 08:42:24;;;;;;;3.57;3.10;;;;;;;4.52;100.00;94203.94;6099254;23;20164;-84
2021/12/27 08:44:50;;;;;;;5.70;3.77;;;;;;;4.53;100.00;94205.53;6124840;23;20165;-84
2021/12/27 08:47:15;;;;;;;3.47;2.90;;;;;;;4.68;100.00;94214.41;6076386;23;20176;-83
2021/12/27 08:49:41;;;;;;;2.53;2.33;;;;;;;4.74;100.00;94206.09;6125730;23;20215;-81
2021/12/27 08:52:07;;;;;;;3.27;2.73;;;;;;;4.83;100.00;94202.63;6124231;23;20231;-82
2021/12/27 08:54:32;;;;;;;2.97;2.37;;;;;;;4.84;100.00;94204.25;6124356;23;20209;-82
2021/12/27 08:56:57;;;;;;;3.30;2.77;;;;;;;4.94;100.00;94203.38;6124086;23;20190;-81
2021/12/27 08:59:23;;;;;;;3.03;2.70;;;;;;;4.90;100.00;94208.00;6123971;23;20191;-81
2021/12/27 09:01:48;;;;;;;2.80;2.60;;;;;;;4.90;100.00;94213.16;6123925;23;20930;-81
2021/12/27 09:04:13;;;;;;;3.93;3.10;;;;;;;4.90;100.00;94228.59;6123408;23;20159;-81
2021/12/27 09:06:39;;;;;;;4.33;3.27;;;;;;;4.73;100.00;94225.03;6121148;23;20232;-80
2021/12/27 09:09:04;;;;;;;5.57;3.57;;;;;;;4.78;100.00;94228.00;6124272;23;20160;-81
2021/12/27 09:11:30;;;;;;;5.20;4.00;;;;;;;4.78;100.00;94228.00;6123261;23;20167;-80
2021/12/27 09:13:55;;;;;;;5.63;4.57;;;;;;;4.69;100.00;94228.88;6124177;23;20247;-80
2021/12/27 09:16:20;;;;;;;5.37;4.67;;;;;;;4.66;100.00;94218.03;6124807;23;20187;-81
2021/12/27 09:18:46;;;;;;;6.43;5.80;;;;;;;4.65;100.00;94224.94;6124833;23;20180;-82
2021/12/27 09:21:11;;;;;;;6.73;5.13;;;;;;;4.78;100.00;94220.28;6124606;23;20163;-80
2021/12/27 09:23:37;;;;;;;5.77;4.90;;;;;;;4.82;100.00;94210.50;6125152;23;20247;-82
2021/12/27 09:26:02;;;;;;;6.67;5.57;;;;;;;4.63;100.00;94215.78;6124311;23;20496;-82
2021/12/27 09:28:28;;;;;;;6.27;4.77;;;;;;;4.55;100.00;94209.56;6124496;23;20160;-81
2021/12/27 09:30:53;;;;;;;7.90;6.53;;;;;;;4.51;100.00;94213.41;6126538;23;20156;-80
2021/12/27 09:33:18;;;;;;;5.13;4.53;;;;;;;4.55;100.00;94217.28;6122169;23;20160;-81
2021/12/27 09:35:44;;;;;;;5.10;4.33;;;;;;;4.58;100.00;94211.03;6122213;23;20181;-81
2021/12/27 09:38:11;;;;;;;5.87;5.07;;;;;;;4.52;100.00;94212.44;6121887;23;20526;-81
2021/12/27 09:40:37;;;;;;;8.53;7.03;;;;;;;4.53;100.00;94210.69;6121742;23;20157;-82
2021/12/27 09:43:02;;;;;;;7.03;6.33;;;;;;;4.48;100.00;94207.72;6121312;23;20167;-81
2021/12/27 09:45:27;;;;;;;6.37;5.47;;;;;;;4.52;100.00;94204.72;6122031;23;20172;-81
2021/12/27 09:47:53;;;;;;;5.90;4.90;;;;;;;4.67;100.00;94193.94;6121646;23;20210;-80
2021/12/27 09:50:22;;;;;;;4.60;4.03;;;;;;;4.66;100.00;94195.69;6121768;23;20189;-81
2021/12/27 09:52:48;;;;;;;5.33;4.70;;;;;;;4.69;100.00;94187.72;6097007;23;20495;-82
2021/12/27 09:55:13;;;;;;;5.47;4.57;;;;;;;4.55;100.00;94186.44;6122121;23;20178;-80
2021/12/27 09:57:39;;;;;;;5.67;5.07;;;;;;;4.48;100.00;94184.59;6098582;23;20156;-80
2021/12/27 10:00:05;;;;;;;6.07;5.30;;;;;;;4.42;100.00;94188.56;6119565;23;20165;-80
2021/12/27 10:02:34;;;;;;;6.17;5.57;;;;;;;4.52;100.00;94191.88;6095671;23;20200;-81
2021/12/27 10:04:59;;;;;;;8.07;6.17;;;;;;;4.58;100.00;94182.75;6121675;23;20578;-79
2021/12/27 10:07:24;;;;;;;8.80;6.70;;;;;;;4.46;100.00;94178.78;6121051;23;20152;-79
2021/12/27 10:09:59;;;;;;;6.67;4.73;;;;;;;4.44;100.00;94178.13;6121167;23;20196;-80
2021/12/27 10:12:26;;;;;;;7.40;6.03;;;;;;;4.45;100.00;94184.88;6067518;23;20200;-81
2021/12/27 10:14:59;;;;;;;7.37;5.60;;;;;;;4.52;100.00;94185.94;6093551;23;20498;-81
2021/12/27 10:17:25;;;;;;;7.10;5.30;;;;;;;4.49;100.00;94183.63;6118462;23;20244;-80
2021/12/27 10:19:52;;;;;;;9.57;5.97;;;;;;;4.44;100.00;94175.56;6119153;23;20749;-80
2021/12/27 10:22:18;;;;;;;6.33;5.03;;;;;;;4.68;100.00;94173.25;6095707;23;20167;-81
2021/12/27 10:24:45;;;;;;;6.90;4.93;;;;;;;4.57;100.00;94168.28;6119607;23;20172;-81
2021/12/27 10:27:10;;;;;;;11.43;5.07;;;;;;;4.48;100.00;94174.31;6119817;23;20176;-82
2021/12/27 10:29:38;;;;;;;7.93;4.90;;;;;;;4.54;100.00;94176.31;6120544;23;20153;-79
2021/12/27 10:32:07;;;;;;;8.53;5.77;;;;;;;4.47;100.00;94170.13;6096662;23;20163;-80
2021/12/27 10:34:40;;;;;;;7.93;5.40;;;;;;;4.44;100.00;94173.78;6095430;23;20157;-81
2021/12/27 10:37:24;;;;;;;6.17;4.80;;;;;;;4.42;100.00;94162.03;6120304;23;20218;-82
2021/12/27 10:40:08;;;;;;;6.83;4.67;;;;;;;4.48;100.00;94161.44;6120424;23;20183;-85
2021/12/27 10:42:35;;;;;;;5.33;4.80;;;;;;;4.54;100.00;94153.97;6119525;23;20167;-81
2021/12/27 10:45:11;;;;;;;5.50;4.73;;;;;;;4.55;100.00;94147.88;6119499;23;20165;-81
2021/12/27 10:47:53;;;;;;;5.03;4.23;;;;;;;4.55;100.00;94141.94;6120430;23;20597;-86
2021/12/27 10:50:26;;;;;;;6.80;4.80;;;;;;;4.47;100.00;94137.50;6073160;23;20167;-86
2021/12/27 10:53:02;;;;;;;7.13;5.73;;;;;;;4.55;100.00;94139.34;6095781;23;20491;-85
2021/12/27 10:55:34;;;;;;;6.50;5.80;;;;;;;4.45;100.00;94146.31;6120615;23;20197;-85
2021/12/27 10:58:08;;;;;;;6.30;5.30;;;;;;;4.45;100.00;94146.31;6096755;23;20636;-86
2021/12/27 11:00:38;;;;;;;6.30;5.03;;;;;;;4.58;100.00;94143.38;6119752;23;20167;-85
2021/12/27 11:03:03;;;;;;;6.67;5.13;;;;;;;4.64;100.00;94138.47;6095849;23;20243;-86
2021/12/27 11:05:34;;;;;;;7.20;5.43;;;;;;;4.73;100.00;94140.19;6120947;23;20186;-85
2021/12/27 11:08:03;;;;;;;5.20;4.70;;;;;;;4.75;100.00;94145.97;6096062;23;20578;-86
2021/12/27 11:10:30;;;;;;;7.07;4.93;;;;;;;4.71;100.00;94142.09;6119913;23;20163;-85
2021/12/27 11:12:59;;;;;;;6.70;5.10;;;;;;;4.99;100.00;94142.00;6071724;23;20164;-86
2021/12/27 11:15:28;;;;;;;7.07;5.20;;;;;;;5.17;100.00;94149.72;6097089;23;20181;-85
2021/12/27 11:17:54;;;;;;;6.03;5.10;;;;;;;5.35;100.00;94145.34;6095339;23;20184;-85
2021/12/27 11:20:20;;;;;;;7.60;5.43;;;;;;;5.25;100.00;94139.50;6120884;23;20268;-86
2021/12/27 11:22:46;;;;;;;6.73;5.20;;;;;;;5.33;100.00;94144.69;6120692;23;20188;-86
2021/12/27 11:25:25;;;;;;;8.13;5.67;;;;;;;5.12;100.00;94139.84;6071959;23;20161;-86
2021/12/27 11:27:51;;;;;;;10.80;7.23;;;;;;;4.94;100.00;94131.34;6098562;23;20183;-86
2021/12/27 11:30:23;;;;;;;7.63;5.63;;;;;;;5.08;100.00;94136.78;6124227;23;20148;-85